Time;durP1;ratioP1;P1;durP2;ratioP2;P2;SDS_P1;SDS_P2;PMS_P1;PMS_P2;Temp;Humidity;BMP_temperature;BMP_pressure;BME280_temperature;BME280_humidity;BME280_pressure;Samples;Min_cycle;Max_cycle;Signal;HPM_P1;HPM_P2
2022/02/03 00:04:57;;;;;;;1.23;1.17;;;1.60;92.00;;;;;;5009180;28;20203;-71
2022/02/03 00:07:33;;;;;;;2.93;2.03;;;1.60;92.30;;;;;;5012123;28;21036;-71
2022/02/03 00:26:29;;;;;;;2.53;1.20;;;1.50;93.30;;;;;;5015630;28;20203;-69
2022/02/03 00:28:54;;;;;;;1.30;1.30;;;1.50;93.40;;;;;;5009492;28;20738;-70
2022/02/03 00:31:39;;;;;;;1.50;1.40;;;1.60;93.30;;;;;;5011969;28;20239;-72
2022/02/03 00:34:18;;;;;;;2.47;1.40;;;1.60;93.40;;;;;;5011580;28;20614;-71
2022/02/03 00:50:29;;;;;;;1.40;1.27;;;1.50;94.40;;;;;;5019719;28;20186;-71
2022/02/03 00:52:56;;;;;;;1.43;1.37;;;1.50;94.40;;;;;;5011312;28;20181;-72
2022/02/03 00:55:23;;;;;;;1.60;1.60;;;1.50;94.30;;;;;;5042907;28;20626;-70
2022/02/03 00:57:53;;;;;;;1.77;1.67;;;1.50;94.40;;;;;;5012278;28;20589;-70
2022/02/03 01:00:20;;;;;;;1.53;1.53;;;1.50;94.70;;;;;;5014852;28;20226;-70
2022/02/03 01:03:05;;;;;;;1.37;1.37;;;1.50;94.80;;;;;;5015224;28;20295;-70
2022/02/03 01:05:32;;;;;;;1.50;1.50;;;1.50;94.70;;;;;;5011869;28;20308;-70
2022/02/03 01:08:04;;;;;;;1.63;1.53;;;1.50;94.80;;;;;;5015661;28;20209;-71
2022/02/03 01:10:38;;;;;;;1.40;1.40;;;1.50;95.00;;;;;;5018112;28;20264;-71
2022/02/03 01:13:12;;;;;;;1.77;1.13;;;1.50;95.30;;;;;;5018448;28;20189;-70
2022/02/03 01:15:48;;;;;;;1.63;1.53;;;1.40;95.20;;;;;;5018051;28;20177;-70
2022/02/03 01:45:47;;;;;;;1.27;1.27;;;1.40;96.40;;;;;;5007403;28;20188;-71
2022/02/03 01:53:40;;;;;;;1.17;1.17;;;1.40;96.70;;;;;;5010095;28;20373;-71
2022/02/03 01:56:11;;;;;;;7.67;2.20;;;1.40;96.70;;;;;;5010324;28;20189;-72
2022/02/03 01:58:45;;;;;;;1.67;1.57;;;1.40;96.70;;;;;;5018097;28;20665;-71
2022/02/03 02:01:24;;;;;;;3.33;2.20;;;1.40;96.70;;;;;;5008076;28;20219;-71
2022/02/03 02:03:57;;;;;;;1.00;0.90;;;1.40;96.80;;;;;;5010211;28;20180;-71
2022/02/03 02:06:39;;;;;;;2.37;2.27;;;1.40;96.70;;;;;;5017393;28;20181;-72
2022/02/03 02:09:14;;;;;;;2.10;1.47;;;1.40;96.70;;;;;;5017160;28;20180;-71
2022/02/03 02:12:16;;;;;;;2.27;2.17;;;1.40;96.70;;;;;;5012291;28;20190;-71
2022/02/03 02:15:39;;;;;;;4.13;1.60;;;1.40;96.80;;;;;;5013233;28;20192;-70
2022/02/03 02:18:18;;;;;;;1.80;1.50;;;1.30;97.00;;;;;;5011460;28;20311;-71
2022/02/03 02:42:55;;;;;;;1.60;1.50;;;1.40;96.50;;;;;;5017012;28;20180;-71
2022/02/03 02:45:48;;;;;;;6.40;2.07;;;1.40;96.50;;;;;;5010755;28;20263;-72
2022/02/03 02:48:26;;;;;;;1.90;1.60;;;1.40;96.50;;;;;;5013407;28;20185;-71
2022/02/03 02:51:02;;;;;;;1.53;1.43;;;1.40;96.60;;;;;;5013710;28;20659;-71
2022/02/03 02:56:31;;;;;;;1.80;1.70;;;1.30;96.40;;;;;;5012390;28;20177;-72
2022/02/03 03:02:12;;;;;;;2.17;1.50;;;1.40;96.20;;;;;;5014727;28;20296;-71
2022/02/03 03:33:33;;;;;;;1.53;1.53;;;1.60;95.20;;;;;;4988866;28;20186;-71
2022/02/03 03:36:08;;;;;;;2.00;1.90;;;1.60;95.10;;;;;;4987934;28;20197;-72
2022/02/03 03:38:36;;;;;;;1.17;1.10;;;1.60;95.10;;;;;;4991784;28;20275;-72
2022/02/03 03:41:03;;;;;;;2.20;1.37;;;1.60;95.00;;;;;;4975619;28;20316;-72
2022/02/03 03:43:58;;;;;;;1.63;1.63;;;1.60;94.90;;;;;;4994045;28;20659;-72
2022/02/03 03:46:38;;;;;;;2.57;1.07;;;1.60;94.80;;;;;;4993209;28;20271;-71
2022/02/03 03:49:53;;;;;;;1.67;1.67;;;1.60;94.80;;;;;;4986634;28;20970;-70
2022/02/03 03:52:25;;;;;;;1.63;1.53;;;1.60;94.80;;;;;;4991903;28;20193;-71
2022/02/03 03:55:10;;;;;;;1.53;1.53;;;1.70;94.70;;;;;;4984531;28;20732;-71
2022/02/03 05:03:08;;;;;;;1.93;1.50;;;1.80;93.00;;;;;;4992984;28;20561;-70
2022/02/03 05:12:02;;;;;;;1.73;1.60;;;1.70;93.00;;;;;;4987275;28;20206;-70
2022/02/03 05:32:54;;;;;;;1.17;1.17;;;1.80;92.40;;;;;;4926637;29;20205;-70
2022/02/03 05:44:26;;;;;;;1.73;1.30;;;1.80;92.30;;;;;;4962084;28;20759;-71
2022/02/03 06:03:32;;;;;;;2.57;2.37;;;1.70;92.00;;;;;;5009095;28;20207;-72
2022/02/03 06:08:55;;;;;;;1.33;1.33;;;1.70;92.00;;;;;;5010639;28;20191;-70
2022/02/03 06:14:19;;;;;;;2.20;1.87;;;1.70;91.90;;;;;;5010621;28;20215;-71
2022/02/03 06:17:17;;;;;;;2.33;1.63;;;1.70;91.80;;;;;;5012436;28;20189;-70
2022/02/03 06:22:52;;;;;;;1.60;1.60;;;1.70;91.50;;;;;;5010197;28;20212;-70
2022/02/03 06:27:47;;;;;;;1.57;1.23;;;1.70;91.40;;;;;;5015470;28;20196;-71
2022/02/03 06:30:18;;;;;;;1.93;1.83;;;1.70;91.30;;;;;;5009711;28;20287;-71
2022/02/03 06:32:44;;;;;;;1.27;1.27;;;1.70;91.30;;;;;;5014038;28;20188;-72
2022/02/03 06:35:12;;;;;;;1.00;1.00;;;1.60;91.00;;;;;;5012789;28;20211;-72
2022/02/03 06:37:38;;;;;;;1.70;1.60;;;1.60;91.10;;;;;;5012706;28;20193;-73
2022/02/03 06:40:06;;;;;;;3.03;1.97;;;1.60;91.10;;;;;;5013536;28;20215;-72
2022/02/03 06:42:32;;;;;;;3.30;1.37;;;1.60;90.80;;;;;;5044370;28;20681;-72
2022/02/03 06:45:11;;;;;;;2.43;2.23;;;1.60;90.80;;;;;;5015348;28;20206;-72
2022/02/03 06:47:49;;;;;;;1.83;1.73;;;1.60;90.70;;;;;;5012237;28;20196;-72
2022/02/03 06:50:20;;;;;;;1.53;1.43;;;1.60;90.80;;;;;;5013094;28;20185;-71
2022/02/03 06:55:17;;;;;;;1.90;1.83;;;1.60;90.90;;;;;;5015760;28;20188;-71
2022/02/03 06:57:55;;;;;;;1.40;1.30;;;1.60;90.70;;;;;;5008691;28;20193;-71
2022/02/03 07:00:45;;;;;;;1.73;1.63;;;1.70;90.50;;;;;;5010559;28;20293;-73
2022/02/03 07:03:18;;;;;;;1.53;1.43;;;;;;;;;;5005685;28;20195;-71
2022/02/03 07:05:44;;;;;;;2.27;2.07;;;1.70;90.20;;;;;;5022506;28;20588;-70
2022/02/03 07:08:15;;;;;;;3.07;1.77;;;1.70;90.20;;;;;;5039088;28;20176;-72
2022/02/03 07:10:41;;;;;;;4.23;2.03;;;1.90;90.10;;;;;;5011386;28;20519;-70
2022/02/03 07:13:08;;;;;;;3.10;1.63;;;1.90;90.10;;;;;;5014201;28;20682;-72
2022/02/03 07:15:34;;;;;;;2.67;2.53;;;1.90;89.80;;;;;;5036697;28;20217;-71
2022/02/03 07:18:00;;;;;;;1.90;1.80;;;1.90;89.60;;;;;;5012840;28;20189;-70
2022/02/03 07:20:29;;;;;;;2.07;1.97;;;1.90;89.40;;;;;;5009345;28;20204;-71
2022/02/03 07:22:55;;;;;;;2.43;2.33;;;1.90;89.60;;;;;;5013330;28;20188;-71
2022/02/03 07:25:20;;;;;;;2.70;2.33;;;2.00;89.60;;;;;;5008513;28;20284;-71
2022/02/03 07:27:46;;;;;;;2.90;1.73;;;2.00;89.50;;;;;;5006591;28;20193;-71
2022/02/03 07:30:13;;;;;;;1.20;1.00;;;2.10;89.60;;;;;;5013394;28;20184;-70
2022/02/03 07:32:39;;;;;;;2.03;2.03;;;2.10;89.60;;;;;;5027719;28;21023;-70
2022/02/03 07:35:05;;;;;;;1.50;1.50;;;2.10;89.30;;;;;;5004117;28;20193;-71
2022/02/03 07:37:31;;;;;;;1.30;1.23;;;2.10;89.00;;;;;;5013169;28;20188;-72
2022/02/03 07:39:57;;;;;;;1.40;1.40;;;2.10;88.90;;;;;;5014146;28;20199;-71
2022/02/03 07:42:24;;;;;;;2.13;2.03;;;2.10;89.10;;;;;;5006929;28;20241;-70
2022/02/03 07:44:49;;;;;;;1.93;1.80;;;2.10;89.20;;;;;;5047583;28;20216;-70
2022/02/03 07:47:16;;;;;;;3.60;1.97;;;2.10;89.00;;;;;;5008344;28;20208;-70
2022/02/03 07:49:42;;;;;;;1.80;1.73;;;2.20;88.90;;;;;;5011670;28;20575;-70
2022/02/03 07:52:07;;;;;;;2.87;1.73;;;2.20;89.00;;;;;;5003463;28;20267;-70
2022/02/03 07:54:34;;;;;;;2.00;1.90;;;2.20;88.80;;;;;;5004593;28;20722;-70
2022/02/03 07:57:00;;;;;;;2.40;2.20;;;2.10;88.60;;;;;;5013999;28;20283;-70
2022/02/03 07:59:27;;;;;;;2.00;1.90;;;2.10;88.60;;;;;;5014133;28;20228;-70
2022/02/03 08:01:53;;;;;;;1.90;1.80;;;2.10;89.00;;;;;;5008215;28;20236;-68
2022/02/03 08:04:23;;;;;;;2.33;2.13;;;2.10;88.90;;;;;;5006055;28;20189;-70
2022/02/03 08:06:49;;;;;;;1.83;1.73;;;2.20;89.00;;;;;;5011328;28;20187;-69
2022/02/03 08:09:26;;;;;;;3.20;2.10;;;2.20;89.00;;;;;;5010009;28;20185;-71
2022/02/03 08:11:53;;;;;;;2.07;1.97;;;2.20;88.60;;;;;;5014328;28;20186;-72
2022/02/03 08:14:35;;;;;;;1.70;1.60;;;2.20;88.50;;;;;;5008562;28;20181;-70
2022/02/03 08:17:11;;;;;;;1.63;1.60;;;2.20;88.50;;;;;;5006604;28;20185;-70
2022/02/03 08:19:51;;;;;;;2.30;2.20;;;2.20;88.40;;;;;;5007917;28;20274;-70
2022/02/03 08:22:22;;;;;;;1.53;1.53;;;2.20;88.40;;;;;;5006317;28;20204;-69
2022/02/03 08:27:42;;;;;;;2.03;1.73;;;2.30;87.90;;;;;;5013459;28;20208;-70
2022/02/03 08:33:16;;;;;;;1.73;1.63;;;2.40;88.00;;;;;;5016471;28;21860;-72
2022/02/03 08:35:48;;;;;;;2.10;2.00;;;2.40;88.00;;;;;;5001876;28;20196;-71
2022/02/03 08:38:28;;;;;;;2.00;2.00;;;2.50;87.90;;;;;;5017852;28;20220;-69
2022/02/03 08:43:21;;;;;;;2.70;2.50;;;2.60;87.70;;;;;;5018757;28;20176;-71
2022/02/03 08:45:47;;;;;;;3.87;2.07;;;2.70;87.40;;;;;;5017452;28;20577;-71
2022/02/03 08:48:15;;;;;;;2.43;2.33;;;2.70;86.90;;;;;;5015428;28;20282;-71
2022/02/03 08:50:42;;;;;;;2.87;2.40;;;2.70;87.10;;;;;;5016899;28;20192;-69
2022/02/03 09:36:05;;;;;;;1.80;1.70;;;3.00;85.70;;;;;;5008476;28;20208;-70
2022/02/03 09:57:04;;;;;;;1.70;1.60;;;3.50;84.30;;;;;;5015914;28;20192;-70
2022/02/03 09:59:43;;;;;;;1.60;1.50;;;3.50;83.80;;;;;;5009242;28;20761;-70
2022/02/03 10:02:14;;;;;;;3.73;2.10;;;3.40;83.40;;;;;;5014564;28;20706;-70
2022/02/03 10:07:15;;;;;;;2.37;2.00;;;3.50;84.20;;;;;;5012157;28;20184;-69
2022/02/03 10:09:42;;;;;;;5.37;2.17;;;3.60;84.00;;;;;;5018427;28;20181;-70
2022/02/03 10:12:10;;;;;;;1.70;1.60;;;3.60;83.50;;;;;;5014748;28;20188;-70
2022/02/03 10:14:38;;;;;;;2.77;2.43;;;3.70;83.50;;;;;;5015542;28;20740;-71
2022/02/03 10:17:05;;;;;;;1.73;1.63;;;3.70;83.10;;;;;;5009696;28;20189;-71
2022/02/03 10:19:40;;;;;;;2.90;2.17;;;3.80;83.30;;;;;;5011646;28;20177;-70
2022/02/03 10:22:16;;;;;;;1.90;1.70;;;3.90;83.40;;;;;;5010641;28;20299;-71
2022/02/03 10:24:47;;;;;;;1.50;1.40;;;4.20;82.80;;;;;;5003987;28;20654;-70
2022/02/03 10:27:26;;;;;;;1.87;1.77;;;4.40;83.10;;;;;;5011739;28;20300;-70
2022/02/03 10:30:07;;;;;;;2.33;2.20;;;4.70;82.40;;;;;;5015246;28;20240;-70
2022/02/03 10:32:38;;;;;;;1.80;1.80;;;4.90;81.80;;;;;;5011005;28;20188;-70
2022/02/03 10:35:39;;;;;;;1.60;1.57;;;5.10;81.10;;;;;;5010857;28;20738;-71
2022/02/03 10:41:37;;;;;;;3.23;2.60;;;5.50;79.20;;;;;;5010108;28;20824;-71
2022/02/03 10:57:20;;;;;;;2.83;2.63;;;6.50;75.70;;;;;;4990109;28;20225;-70
2022/02/03 11:00:25;;;;;;;2.77;2.67;;;6.70;75.70;;;;;;4991003;28;20208;-72
2022/02/03 11:03:08;;;;;;;2.67;2.47;;;6.90;75.10;;;;;;4989055;28;20285;-71
2022/02/03 11:08:47;;;;;;;2.40;1.90;;;7.20;73.40;;;;;;4916325;29;20198;-71
2022/02/03 11:11:18;;;;;;;4.73;2.03;;;7.70;73.30;;;;;;4900428;29;20192;-71
2022/02/03 11:13:45;;;;;;;3.27;2.83;;;8.40;72.50;;;;;;4912316;29;20255;-72
2022/02/03 11:16:12;;;;;;;4.00;2.73;;;9.00;70.40;;;;;;4914850;29;20192;-72
2022/02/03 11:18:41;;;;;;;2.47;2.30;;;9.40;69.70;;;;;;4899075;29;20219;-71
2022/02/03 11:21:07;;;;;;;2.77;2.63;;;9.90;69.40;;;;;;4895309;29;20233;-73
2022/02/03 11:23:41;;;;;;;4.17;2.67;;;10.20;68.20;;;;;;4895932;29;20345;-71
2022/02/03 11:48:23;;;;;;;2.57;2.47;;;8.40;70.10;;;;;;5021494;28;20270;-72
2022/02/03 11:53:43;;;;;;;3.07;2.87;;;7.50;70.20;;;;;;5021875;28;20267;-71
2022/02/03 12:11:04;;;;;;;1.70;1.63;;;6.90;73.60;;;;;;5021051;28;20634;-70
2022/02/03 12:16:07;;;;;;;2.47;2.27;;;7.10;72.70;;;;;;5016607;28;20193;-70
2022/02/03 12:21:50;;;;;;;2.33;2.00;;;7.20;73.30;;;;;;5009837;28;20341;-70
2022/02/03 12:24:48;;;;;;;1.43;1.43;;;7.50;73.40;;;;;;5008952;28;20196;-71
2022/02/03 12:30:26;;;;;;;2.50;2.30;;;7.80;71.60;;;;;;5008072;28;20596;-70
2022/02/03 12:38:33;;;;;;;2.30;2.10;;;7.40;71.40;;;;;;5006718;28;20206;-70
2022/02/03 12:41:12;;;;;;;2.30;1.50;;;7.20;72.10;;;;;;5004769;28;20335;-69
2022/02/03 12:43:41;;;;;;;1.50;1.50;;;7.00;72.30;;;;;;5006101;28;20184;-72
2022/02/03 12:46:07;;;;;;;1.63;1.63;;;6.90;73.00;;;;;;5004524;28;20180;-70
2022/02/03 12:48:36;;;;;;;2.10;2.00;;;6.80;73.70;;;;;;5005562;28;20188;-71
2022/02/03 12:51:04;;;;;;;1.83;1.73;;;6.70;74.80;;;;;;5003516;28;20184;-71
2022/02/03 12:53:36;;;;;;;1.50;1.40;;;6.60;75.50;;;;;;5002594;28;20193;-71
2022/02/03 12:56:06;;;;;;;1.50;1.50;;;6.50;76.00;;;;;;4990097;28;20204;-70
2022/02/03 12:58:38;;;;;;;4.50;1.57;;;6.50;76.20;;;;;;5005693;28;20748;-70
2022/02/03 13:01:12;;;;;;;1.20;1.20;;;6.50;76.20;;;;;;4992199;28;20248;-70
2022/02/03 13:03:41;;;;;;;1.80;1.77;;;6.50;76.40;;;;;;5010485;28;20195;-71
2022/02/03 13:06:13;;;;;;;1.87;1.77;;;6.40;76.70;;;;;;5011284;28;20216;-71
2022/02/03 13:08:43;;;;;;;1.87;1.57;;;6.40;76.90;;;;;;5010869;28;20247;-71
2022/02/03 13:11:21;;;;;;;1.77;1.77;;;6.30;77.50;;;;;;5014625;28;20203;-71
2022/02/03 13:16:27;;;;;;;1.70;1.70;;;6.10;78.60;;;;;;5013617;28;20201;-71
2022/02/03 13:19:01;;;;;;;3.20;1.80;;;6.00;78.60;;;;;;5011878;28;20282;-71
2022/02/03 13:24:28;;;;;;;2.87;1.80;;;5.80;79.40;;;;;;5013304;28;20220;-71
2022/02/03 13:26:55;;;;;;;4.27;1.77;;;5.80;79.90;;;;;;5013220;28;20232;-70
2022/02/03 13:29:30;;;;;;;1.87;1.67;;;5.70;80.70;;;;;;5010996;28;20212;-70
2022/02/03 13:32:11;;;;;;;1.40;1.30;;;5.60;81.40;;;;;;5010647;28;20253;-72
2022/02/03 13:34:46;;;;;;;1.33;1.30;;;5.40;82.30;;;;;;5011926;28;20659;-70
2022/02/03 13:37:22;;;;;;;3.07;1.70;;;5.30;83.00;;;;;;5010749;28;20199;-70
2022/02/03 13:40:08;;;;;;;1.60;1.50;;;5.20;83.70;;;;;;5012159;28;20279;-70
2022/02/03 13:42:35;;;;;;;1.27;1.10;;;5.10;83.90;;;;;;5010889;28;20216;-70
2022/02/03 13:45:02;;;;;;;2.23;1.50;;;5.00;84.50;;;;;;5015001;28;20679;-70
2022/02/03 13:47:34;;;;;;;3.80;1.53;;;4.90;84.70;;;;;;5016490;28;20282;-70
2022/02/03 13:50:05;;;;;;;1.87;1.67;;;4.90;84.90;;;;;;5012922;28;20799;-70
2022/02/03 13:52:41;;;;;;;2.17;2.07;;;4.70;85.20;;;;;;5012635;28;20245;-71
2022/02/03 14:15:10;;;;;;;3.07;2.03;;;3.60;87.90;;;;;;5020031;28;20872;-71
2022/02/03 14:18:04;;;;;;;2.13;1.97;;;;;;;;;;5012664;28;20185;-70
2022/02/03 14:28:32;;;;;;;4.73;2.30;;;3.40;85.70;;;;;;5013701;28;20363;-71
2022/02/03 14:31:02;;;;;;;4.10;2.27;;;3.40;84.70;;;;;;5011868;28;20701;-72
2022/02/03 14:33:33;;;;;;;1.97;1.77;;;3.40;84.70;;;;;;5008989;28;20188;-69
2022/02/03 14:36:04;;;;;;;1.73;1.63;;;3.40;84.10;;;;;;5011945;28;20924;-68
2022/02/03 14:38:34;;;;;;;2.43;2.23;;;3.50;83.90;;;;;;5008229;28;20192;-70
2022/02/03 14:41:11;;;;;;;2.10;1.97;;;3.50;83.00;;;;;;5004445;28;20229;-69
2022/02/03 14:43:37;;;;;;;12.30;1.83;;;;;;;;;;5006942;28;20180;-70
2022/02/03 14:46:05;;;;;;;1.67;1.57;;;3.40;82.70;;;;;;5011647;28;20188;-70
2022/02/03 14:48:31;;;;;;;1.57;1.40;;;3.40;82.40;;;;;;5007684;28;20562;-68
2022/02/03 14:50:59;;;;;;;2.10;1.90;;;3.40;82.10;;;;;;5009340;28;20208;-70
2022/02/03 14:53:32;;;;;;;1.67;1.57;;;3.40;81.90;;;;;;5006447;28;20185;-70
2022/02/03 14:58:41;;;;;;;1.50;1.40;;;3.40;81.80;;;;;;5010236;28;20191;-70
2022/02/03 15:01:11;;;;;;;1.27;1.10;;;3.30;81.80;;;;;;5010181;28;20209;-70
2022/02/03 15:03:36;;;;;;;1.03;1.03;;;3.30;81.70;;;;;;5007025;28;20550;-70
2022/02/03 15:06:08;;;;;;;1.57;1.57;;;3.30;81.20;;;;;;5009528;28;20184;-70
2022/02/03 15:11:11;;;;;;;2.53;1.73;;;3.30;81.20;;;;;;5011528;28;20710;-70
2022/02/03 15:13:48;;;;;;;1.33;1.23;;;3.30;80.80;;;;;;5003034;28;20216;-70
2022/02/03 15:16:15;;;;;;;1.07;1.07;;;3.40;80.30;;;;;;5006500;28;20207;-70
2022/02/03 15:18:41;;;;;;;1.13;1.13;;;3.40;80.00;;;;;;5010265;28;20195;-69
2022/02/03 15:21:08;;;;;;;2.63;1.80;;;3.30;79.60;;;;;;5011418;28;20205;-70
2022/02/03 15:23:34;;;;;;;1.90;1.30;;;3.30;79.10;;;;;;5004026;28;20231;-70
2022/02/03 15:26:00;;;;;;;1.80;1.70;;;3.30;78.70;;;;;;5009837;28;20185;-69
2022/02/03 15:28:26;;;;;;;1.60;1.50;;;3.30;78.70;;;;;;5009843;28;20187;-70
2022/02/03 15:30:56;;;;;;;1.47;1.37;;;3.20;78.30;;;;;;5006265;28;20299;-69
2022/02/03 15:33:25;;;;;;;2.33;1.73;;;3.20;78.40;;;;;;5007564;28;20189;-69
2022/02/03 15:35:56;;;;;;;1.97;1.53;;;3.20;78.60;;;;;;5002412;28;20195;-70
2022/02/03 15:38:23;;;;;;;1.70;1.60;;;3.20;78.60;;;;;;5003910;28;20197;-70
2022/02/03 15:40:51;;;;;;;2.17;1.97;;;3.10;78.80;;;;;;5009642;28;20320;-70
2022/02/03 15:43:29;;;;;;;2.53;1.67;;;3.10;78.70;;;;;;5007787;28;20199;-71
2022/02/03 15:45:59;;;;;;;1.70;1.60;;;3.10;79.00;;;;;;5007296;28;20191;-70
2022/02/03 15:56:15;;;;;;;2.20;1.77;;;3.00;78.80;;;;;;5010015;28;20191;-69
2022/02/03 16:17:17;;;;;;;1.33;1.23;;;2.70;78.60;;;;;;5004294;28;20188;-70
2022/02/03 16:20:03;;;;;;;2.07;1.83;;;2.70;78.50;;;;;;5003088;28;20192;-71
2022/02/03 16:25:08;;;;;;;2.00;2.00;;;2.70;78.60;;;;;;5006498;28;20189;-70
2022/02/03 16:54:37;;;;;;;1.30;1.20;;;2.20;79.90;;;;;;5008393;28;20181;-71
2022/02/03 16:57:11;;;;;;;1.80;1.63;;;2.10;80.20;;;;;;5003897;28;20239;-70
2022/02/03 16:59:45;;;;;;;1.83;1.30;;;2.10;80.40;;;;;;5007196;28;20250;-70
2022/02/03 17:02:11;;;;;;;1.67;1.57;;;2.00;80.60;;;;;;5006253;28;20312;-71
2022/02/03 17:04:36;;;;;;;1.60;1.37;;;2.00;80.80;;;;;;5008519;28;20176;-71
2022/02/03 17:07:02;;;;;;;8.10;1.70;;;2.00;80.90;;;;;;5007867;28;21028;-71
2022/02/03 17:09:28;;;;;;;1.43;1.13;;;1.90;81.10;;;;;;5010121;28;20581;-71
2022/02/03 17:11:54;;;;;;;1.33;1.33;;;1.90;81.10;;;;;;5012379;28;20664;-71
2022/02/03 17:14:19;;;;;;;1.40;1.30;;;1.80;81.30;;;;;;5008056;28;20272;-70
2022/02/03 17:16:46;;;;;;;1.57;1.50;;;1.80;81.40;;;;;;5007671;28;20270;-72
2022/02/03 17:19:12;;;;;;;1.40;1.30;;;1.70;81.60;;;;;;5005317;28;20273;-70
2022/02/03 17:21:38;;;;;;;1.90;1.63;;;1.60;81.70;;;;;;5008686;28;20304;-71
2022/02/03 17:24:04;;;;;;;1.27;1.23;;;1.60;81.90;;;;;;5009714;28;20180;-70
2022/02/03 17:26:43;;;;;;;2.03;1.53;;;1.50;82.10;;;;;;5007014;28;20191;-71
2022/02/03 17:29:22;;;;;;;1.10;1.10;;;1.40;82.50;;;;;;5008804;28;20187;-71
2022/02/03 17:32:03;;;;;;;4.20;1.50;;;1.40;82.70;;;;;;5004282;28;20190;-71
2022/02/03 18:52:33;;;;;;;1.53;1.23;;;0.80;85.10;;;;;;4875314;29;20200;-73
2022/02/03 18:57:37;;;;;;;1.70;1.70;;;0.70;85.30;;;;;;4960674;28;20233;-74
2022/02/03 19:14:22;;;;;;;1.53;1.53;;;0.60;85.30;;;;;;5002678;28;20181;-73
2022/02/03 19:27:15;;;;;;;3.77;1.67;;;0.60;85.40;;;;;;5004639;28;20177;-73
2022/02/03 20:04:53;;;;;;;1.80;1.37;;;0.30;84.70;;;;;;5008284;28;20184;-73
2022/02/03 20:07:42;;;;;;;1.30;1.20;;;0.30;84.80;;;;;;5004433;28;20607;-74
2022/02/03 20:10:20;;;;;;;3.60;1.10;;;0.30;84.80;;;;;;5003098;28;20189;-73
2022/02/03 20:12:46;;;;;;;0.70;0.70;;;0.30;84.90;;;;;;5002913;28;20180;-74
2022/02/03 20:15:13;;;;;;;2.47;1.40;;;0.30;84.80;;;;;;5004560;28;20584;-73
2022/02/03 20:17:38;;;;;;;0.67;0.67;;;0.30;84.70;;;;;;5000302;28;20192;-73
2022/02/03 20:20:05;;;;;;;1.47;1.30;;;0.30;84.60;;;;;;5003641;28;20674;-71
2022/02/03 20:22:34;;;;;;;1.30;0.80;;;0.30;84.60;;;;;;5006309;28;20252;-73
2022/02/03 20:25:02;;;;;;;1.00;1.00;;;0.30;84.60;;;;;;4998984;28;20948;-73
2022/02/03 20:27:28;;;;;;;0.90;0.90;;;0.30;84.60;;;;;;5000146;28;20184;-73
2022/02/03 20:29:54;;;;;;;0.70;0.70;;;0.30;84.60;;;;;;5002547;28;20671;-73
2022/02/03 20:32:20;;;;;;;1.30;1.30;;;0.30;84.60;;;;;;5004322;28;20193;-73
2022/02/03 20:34:46;;;;;;;1.00;1.00;;;0.30;84.60;;;;;;5003862;28;20180;-73
2022/02/03 20:37:13;;;;;;;1.03;1.03;;;0.30;84.70;;;;;;5001509;28;20201;-72
2022/02/03 20:39:39;;;;;;;1.20;1.20;;;0.30;84.80;;;;;;5003758;28;20201;-73
2022/02/03 20:42:05;;;;;;;0.80;0.80;;;0.30;84.70;;;;;;5004782;28;20689;-72
2022/02/03 20:44:30;;;;;;;2.67;0.93;;;0.30;84.80;;;;;;5002469;28;20185;-72
2022/02/03 20:46:56;;;;;;;2.57;0.90;;;0.20;84.80;;;;;;5004594;28;20272;-72
2022/02/03 20:49:23;;;;;;;0.80;0.77;;;0.30;84.70;;;;;;5009404;28;20196;-72
2022/02/03 20:51:49;;;;;;;1.07;1.07;;;0.30;84.70;;;;;;5022856;28;20185;-72
2022/02/03 20:54:15;;;;;;;1.63;1.00;;;0.30;84.70;;;;;;5003103;28;20634;-73
2022/02/03 20:56:42;;;;;;;0.90;0.90;;;0.30;84.70;;;;;;5001995;28;20243;-74
2022/02/03 20:59:10;;;;;;;0.90;0.90;;;0.30;84.50;;;;;;5004202;28;20957;-74
2022/02/03 21:01:38;;;;;;;1.47;0.93;;;0.30;84.40;;;;;;5006635;28;20229;-74
2022/02/03 21:04:11;;;;;;;1.57;1.03;;;0.30;84.50;;;;;;5001464;28;20243;-75
2022/02/03 21:06:37;;;;;;;1.83;1.60;;;0.20;84.40;;;;;;5000474;28;20690;-75
2022/02/03 21:09:07;;;;;;;1.23;1.23;;;0.20;84.40;;;;;;5004993;28;20191;-75
2022/02/03 21:11:32;;;;;;;2.87;1.43;;;0.20;84.50;;;;;;5000925;28;20272;-76
2022/02/03 21:14:01;;;;;;;0.80;0.80;;;0.20;84.60;;;;;;5005542;28;20750;-75
2022/02/03 21:16:27;;;;;;;2.73;1.00;;;0.10;84.60;;;;;;5002626;28;20288;-75
2022/02/03 21:18:53;;;;;;;1.30;1.20;;;0.10;84.70;;;;;;5003331;28;20682;-75
2022/02/03 21:21:18;;;;;;;1.30;1.20;;;0.10;84.80;;;;;;5004718;28;20209;-75
2022/02/03 21:23:44;;;;;;;1.77;1.40;;;0.10;84.80;;;;;;5007278;28;20582;-75
2022/02/03 21:26:18;;;;;;;0.90;0.90;;;0.10;84.80;;;;;;5010863;28;20208;-74
2022/02/03 21:28:47;;;;;;;1.40;0.93;;;0.10;84.80;;;;;;5022985;28;20598;-74
2022/02/03 21:31:13;;;;;;;0.63;0.63;;;0.10;84.80;;;;;;5008765;28;20202;-75
2022/02/03 21:33:49;;;;;;;1.37;1.27;;;0.00;84.70;;;;;;5005883;28;20726;-74
2022/02/03 21:36:16;;;;;;;1.07;1.07;;;0.00;84.60;;;;;;5005485;28;20184;-74
2022/02/03 21:38:42;;;;;;;0.87;0.87;;;0.00;84.50;;;;;;5007616;28;20197;-75
2022/02/03 21:41:10;;;;;;;2.13;1.20;;;0.00;84.50;;;;;;5010110;28;20208;-75
2022/02/03 21:43:36;;;;;;;1.80;1.00;;;0.00;84.30;;;;;;5012400;28;20290;-74
2022/02/03 21:46:02;;;;;;;0.73;0.70;;;-0.10;84.40;;;;;;5011022;28;20907;-74
2022/02/03 21:48:28;;;;;;;1.67;1.20;;;-0.10;84.30;;;;;;5006654;28;20196;-74
2022/02/03 21:50:55;;;;;;;0.60;0.60;;;-0.10;84.10;;;;;;5011880;28;20957;-74
2022/02/03 21:53:25;;;;;;;0.93;0.83;;;-0.10;84.00;;;;;;5014121;28;20176;-74
2022/02/03 21:55:52;;;;;;;0.70;0.70;;;-0.10;83.80;;;;;;5007265;28;20197;-74
2022/02/03 21:58:18;;;;;;;0.63;0.63;;;-0.10;83.70;;;;;;5011842;28;20590;-74
2022/02/03 22:00:45;;;;;;;3.00;1.07;;;-0.10;83.60;;;;;;5005375;28;20177;-74
2022/02/03 22:03:10;;;;;;;2.30;2.00;;;-0.10;83.40;;;;;;5008952;28;20705;-73
2022/02/03 22:05:38;;;;;;;0.63;0.60;;;-0.10;83.20;;;;;;5010956;28;20185;-74
2022/02/03 22:08:04;;;;;;;0.87;0.87;;;-0.10;83.10;;;;;;5009788;28;20188;-74
2022/02/03 22:10:30;;;;;;;0.50;0.50;;;-0.10;82.80;;;;;;5009672;28;20226;-74
2022/02/03 22:12:55;;;;;;;1.10;1.10;;;-0.10;82.90;;;;;;5009813;28;20184;-74
2022/02/03 22:15:22;;;;;;;1.30;1.20;;;-0.10;82.90;;;;;;5005946;28;20185;-74
2022/02/03 22:17:49;;;;;;;0.87;0.87;;;-0.10;82.30;;;;;;5011445;28;20636;-74
2022/02/03 22:44:56;;;;;;;1.13;0.77;;;-0.10;81.50;;;;;;4984227;28;20378;-76
2022/02/03 22:50:08;;;;;;;0.80;0.80;;;-0.10;81.50;;;;;;4962318;28;20206;-75
2022/02/03 22:52:35;;;;;;;0.97;0.97;;;-0.10;81.30;;;;;;4958066;28;20912;-75
2022/02/03 22:55:03;;;;;;;0.97;0.90;;;0.00;81.10;;;;;;4949547;28;20746;-75
2022/02/03 22:57:28;;;;;;;2.87;0.83;;;0.00;81.20;;;;;;4960506;28;20198;-75
2022/02/03 23:02:20;;;;;;;0.83;0.70;;;-0.10;81.00;;;;;;4938793;28;20678;-75
2022/02/03 23:04:46;;;;;;;1.03;0.90;;;-0.10;80.90;;;;;;4938466;28;20202;-75
2022/02/03 23:07:21;;;;;;;0.87;0.87;;;-0.10;81.00;;;;;;4939698;28;20238;-75
2022/02/03 23:09:55;;;;;;;1.00;1.00;;;-0.10;81.00;;;;;;4941790;28;20736;-75
2022/02/03 23:12:44;;;;;;;4.70;0.70;;;-0.10;80.90;;;;;;4960398;28;20186;-76
2022/02/03 23:20:21;;;;;;;1.20;1.20;;;-0.10;81.20;;;;;;4959536;28;20715;-75
2022/02/03 23:22:47;;;;;;;1.00;0.50;;;-0.10;81.10;;;;;;4947251;28;20288;-75
2022/02/03 23:25:16;;;;;;;1.23;0.90;;;-0.10;81.30;;;;;;4961137;28;20190;-75
2022/02/03 23:30:14;;;;;;;0.73;0.73;;;-0.20;81.20;;;;;;5009959;28;20189;-75
2022/02/03 23:32:40;;;;;;;0.90;0.77;;;-0.20;81.30;;;;;;5000645;28;20868;-75
2022/02/03 23:37:44;;;;;;;0.83;0.83;;;-0.20;81.20;;;;;;5007584;28;20602;-75
2022/02/03 23:40:19;;;;;;;0.70;0.70;;;-0.20;81.30;;;;;;5006642;28;20278;-75
2022/02/03 23:48:53;;;;;;;1.80;0.70;;;-0.20;81.60;;;;;;5010345;28;20188;-75
